Time;durP1;ratioP1;P1;durP2;ratioP2;P2;SDS_P1;SDS_P2;PMS_P1;PMS_P2;Temp;Humidity;BMP_temperature;BMP_pressure;BME280_temperature;BME280_humidity;BME280_pressure;Samples;Min_cycle;Max_cycle;Signal;HPM_P1;HPM_P2
2023/05/21 00:00:15;;;;;;;9.00;6.85;;;;;;;15.13;100.00;64550.88;5032672;28;20190;-60
2023/05/21 00:02:41;;;;;;;9.98;6.70;;;;;;;15.19;100.00;64556.91;5032769;28;20244;-59
2023/05/21 00:05:12;;;;;;;10.57;7.38;;;;;;;15.03;100.00;64539.88;5032522;28;20207;-59
2023/05/21 00:07:37;;;;;;;9.13;6.03;;;;;;;14.96;100.00;64534.75;5032681;28;20190;-57
2023/05/21 00:10:03;;;;;;;9.73;7.18;;;;;;;14.93;100.00;64526.34;5032332;28;20206;-58
2023/05/21 00:12:29;;;;;;;12.13;7.20;;;;;;;14.87;100.00;64524.84;5032442;28;20551;-59
2023/05/21 00:14:54;;;;;;;13.13;5.97;;;;;;;14.93;100.00;64530.88;5032533;28;20280;-60
2023/05/21 00:17:19;;;;;;;8.18;6.05;;;;;;;14.95;100.00;64533.06;5031019;28;20212;-60
2023/05/21 00:19:45;;;;;;;8.73;6.40;;;;;;;15.09;100.00;64546.47;5031049;28;20217;-59
2023/05/21 00:22:10;;;;;;;11.18;6.75;;;;;;;15.04;100.00;64541.00;5032003;28;20223;-59
2023/05/21 00:24:36;;;;;;;10.35;6.85;;;;;;;15.06;100.00;64542.63;5032133;28;20687;-59
2023/05/21 00:27:01;;;;;;;9.30;6.30;;;;;;;15.03;100.00;64539.34;5030669;28;20194;-59
2023/05/21 00:29:28;;;;;;;9.75;6.85;;;;;;;14.99;100.00;64535.50;5032253;28;20252;-58
2023/05/21 00:31:54;;;;;;;13.27;7.60;;;;;;;15.11;100.00;64550.66;5030472;28;20186;-60
2023/05/21 00:34:20;;;;;;;10.85;6.68;;;;;;;15.15;100.00;64555.63;5032159;28;20217;-56
2023/05/21 00:36:45;;;;;;;10.27;6.63;;;;;;;15.02;100.00;64536.25;5032033;28;20214;-56
2023/05/21 00:39:12;;;;;;;12.00;7.00;;;;;;;15.04;100.00;64542.97;5032072;28;20212;-57
2023/05/21 00:41:41;;;;;;;7.40;5.10;;;;;;;15.04;100.00;64541.00;5031986;28;20175;-56
2023/05/21 00:44:07;;;;;;;9.27;5.18;;;;;;;14.92;100.00;64525.25;5047586;28;20692;-55
2023/05/21 00:46:40;;;;;;;10.10;5.45;;;;;;;14.75;100.00;64511.09;5031985;28;20213;-57
2023/05/21 00:49:06;;;;;;;11.65;5.82;;;;;;;14.74;100.00;64507.47;5047219;28;20764;-56
2023/05/21 00:51:32;;;;;;;6.85;5.07;;;;;;;14.73;100.00;64504.38;5031898;28;20297;-57
2023/05/21 00:53:57;;;;;;;9.27;5.10;;;;;;;14.82;100.00;64518.78;5032242;28;20206;-57
2023/05/21 00:56:26;;;;;;;12.35;5.20;;;;;;;14.69;100.00;64499.97;5031684;28;20258;-58
2023/05/21 00:58:52;;;;;;;6.60;5.05;;;;;;;14.52;100.00;64485.81;5031551;28;20210;-57
2023/05/21 01:01:18;;;;;;;9.82;4.78;;;;;;;14.51;100.00;64482.72;5031971;28;20193;-59
2023/05/21 01:03:43;;;;;;;7.43;4.60;;;;;;;14.44;100.00;64475.06;5031936;28;20212;-59
2023/05/21 01:06:10;;;;;;;6.63;4.40;;;;;;;14.36;100.00;64466.25;5031681;28;20252;-59
2023/05/21 01:08:39;;;;;;;6.40;4.35;;;;;;;14.37;100.00;64467.34;5032036;28;20218;-61
2023/05/21 01:11:06;;;;;;;6.53;4.63;;;;;;;14.30;100.00;64460.19;5031831;28;20198;-59
2023/05/21 01:13:35;;;;;;;8.35;5.07;;;;;;;13.96;100.00;64424.81;5031638;28;20700;-58
2023/05/21 01:16:01;;;;;;;9.05;5.93;;;;;;;13.80;100.00;64405.25;5030103;28;20213;-55
2023/05/21 01:18:28;;;;;;;11.53;5.00;;;;;;;13.91;100.00;64419.34;5031626;28;20214;-58
2023/05/21 01:20:54;;;;;;;7.88;5.55;;;;;;;14.08;100.00;64435.47;5031418;28;20265;-56
2023/05/21 01:23:20;;;;;;;12.25;5.20;;;;;;;14.39;100.00;64469.53;5031578;28;20289;-57
2023/05/21 01:25:46;;;;;;;10.60;5.88;;;;;;;14.62;100.00;64494.28;5031292;28;20727;-56
2023/05/21 01:28:12;;;;;;;7.03;5.47;;;;;;;14.67;100.00;64499.75;5031473;28;20205;-57
2023/05/21 01:30:40;;;;;;;9.35;6.55;;;;;;;14.58;100.00;64492.97;5031181;28;20653;-56
2023/05/21 01:33:14;;;;;;;9.73;6.53;;;;;;;14.64;100.00;64499.56;5031191;28;20214;-56
2023/05/21 01:35:59;;;;;;;10.85;6.72;;;;;;;14.67;100.00;64499.75;5031060;28;20671;-56
2023/05/21 01:38:46;;;;;;;9.55;6.38;;;;;;;14.66;100.00;64501.75;5030527;28;20222;-56
2023/05/21 01:41:16;;;;;;;13.27;6.68;;;;;;;14.77;100.00;64511.31;5031345;28;20182;-56
2023/05/21 01:43:44;;;;;;;12.23;7.28;;;;;;;14.99;100.00;64535.50;5031121;28;20601;-59
2023/05/21 01:46:13;;;;;;;12.82;7.15;;;;;;;14.85;100.00;64519.53;5031150;28;20221;-60
2023/05/21 01:48:40;;;;;;;14.77;7.57;;;;;;;14.77;100.00;64513.84;5031426;28;20238;-59
2023/05/21 01:51:06;;;;;;;8.93;6.82;;;;;;;14.53;100.00;64484.94;5030998;28;20742;-59
2023/05/21 01:53:31;;;;;;;9.98;6.60;;;;;;;14.64;100.00;64499.56;5046527;28;20214;-59
2023/05/21 01:55:58;;;;;;;10.65;6.55;;;;;;;14.71;100.00;64504.72;5031028;28;20280;-60
2023/05/21 01:58:24;;;;;;;13.80;6.85;;;;;;;14.73;100.00;64501.28;5030880;28;20214;-60
2023/05/21 02:00:53;;;;;;;13.55;6.63;;;;;;;14.70;100.00;64506.16;5030968;28;20196;-57
2023/05/21 02:03:20;;;;;;;11.23;7.18;;;;;;;14.77;100.00;64510.75;5030875;28;20220;-56
2023/05/21 02:05:46;;;;;;;12.75;7.32;;;;;;;14.79;100.00;64513.50;5031274;28;20810;-56
2023/05/21 02:08:13;;;;;;;9.23;7.20;;;;;;;14.78;100.00;64514.41;5030956;28;20244;-55
2023/05/21 02:10:39;;;;;;;11.30;6.88;;;;;;;14.95;100.00;64531.09;5030857;28;20182;-56
2023/05/21 02:13:04;;;;;;;11.35;7.22;;;;;;;15.00;100.00;64533.50;5030797;28;20206;-60
2023/05/21 02:15:33;;;;;;;9.32;7.30;;;;;;;14.89;100.00;64524.50;5030670;28;20316;-59
2023/05/21 02:17:58;;;;;;;9.82;7.82;;;;;;;14.62;100.00;64494.28;5030660;28;20219;-58
2023/05/21 02:20:24;;;;;;;9.95;6.95;;;;;;;14.44;100.00;64477.03;5030755;28;20186;-56
2023/05/21 02:22:49;;;;;;;18.02;7.40;;;;;;;14.40;100.00;64470.66;5045728;28;20747;-59
2023/05/21 02:25:17;;;;;;;13.95;8.13;;;;;;;14.25;100.00;64454.16;5030545;28;20178;-58
2023/05/21 02:27:43;;;;;;;16.10;8.90;;;;;;;14.22;100.00;64451.41;5030609;28;20720;-57
2023/05/21 02:30:13;;;;;;;11.85;8.75;;;;;;;14.09;100.00;64436.56;5030576;28;20217;-56
2023/05/21 02:32:43;;;;;;;15.13;8.52;;;;;;;14.13;100.00;64443.50;5030654;28;20252;-58
2023/05/21 02:35:10;;;;;;;8.73;6.93;;;;;;;14.35;100.00;64465.16;5030568;28;20221;-59
2023/05/21 02:37:36;;;;;;;12.50;7.68;;;;;;;14.45;100.00;64478.69;5030512;28;20221;-57
2023/05/21 02:40:06;;;;;;;12.57;8.32;;;;;;;14.38;100.00;64467.91;5030318;28;20202;-56
2023/05/21 02:42:32;;;;;;;12.82;8.55;;;;;;;14.50;100.00;64481.66;5030615;28;20194;-59
2023/05/21 02:44:58;;;;;;;14.13;8.70;;;;;;;14.28;100.00;64457.47;5030392;28;20217;-57
2023/05/21 02:47:24;;;;;;;13.07;8.65;;;;;;;14.23;100.00;64451.94;5030370;28;20281;-60
2023/05/21 02:49:50;;;;;;;14.65;7.97;;;;;;;14.45;100.00;64475.59;5030332;28;20210;-59
2023/05/21 02:52:17;;;;;;;19.15;8.40;;;;;;;14.63;100.00;64495.91;5033476;28;20185;-59
2023/05/21 02:54:43;;;;;;;12.07;8.52;;;;;;;14.44;100.00;64474.50;5033878;28;20201;-60
2023/05/21 02:57:09;;;;;;;13.07;8.45;;;;;;;14.18;100.00;64446.47;5033826;28;20217;-59
2023/05/21 02:59:34;;;;;;;10.52;8.13;;;;;;;14.24;100.00;64455.59;5033732;28;20274;-57
2023/05/21 03:02:00;;;;;;;12.60;8.65;;;;;;;14.42;100.00;64470.31;5033758;28;20693;-57
2023/05/21 03:04:27;;;;;;;14.10;9.10;;;;;;;14.37;100.00;64467.34;5033695;28;20305;-59
2023/05/21 03:06:53;;;;;;;12.80;8.23;;;;;;;14.33;100.00;64462.97;5033514;28;20225;-59
2023/05/21 03:09:20;;;;;;;11.95;9.30;;;;;;;14.43;100.00;64476.47;5033430;28;20218;-57
2023/05/21 03:11:46;;;;;;;12.32;9.95;;;;;;;14.39;100.00;64471.53;5048939;28;20310;-58
2023/05/21 03:14:12;;;;;;;12.52;8.98;;;;;;;14.30;100.00;64457.66;5033475;28;20272;-57
2023/05/21 03:16:40;;;;;;;14.30;8.95;;;;;;;14.35;100.00;64467.13;5033508;28;20206;-58
2023/05/21 03:19:06;;;;;;;13.48;8.50;;;;;;;14.49;100.00;64480.53;5033632;28;20309;-59
2023/05/21 03:21:32;;;;;;;13.90;9.65;;;;;;;14.46;100.00;64479.78;5033554;28;20182;-59
2023/05/21 03:23:58;;;;;;;12.93;8.82;;;;;;;14.49;100.00;64482.50;5033674;28;20297;-60
2023/05/21 03:26:26;;;;;;;12.82;9.38;;;;;;;14.49;100.00;64483.06;5033426;28;20186;-58
2023/05/21 03:28:52;;;;;;;12.10;9.10;;;;;;;14.72;100.00;64508.34;5033395;28;20276;-59
2023/05/21 03:31:18;;;;;;;11.90;9.23;;;;;;;14.80;100.00;64514.63;5033305;28;20248;-56
2023/05/21 03:33:43;;;;;;;15.55;9.55;;;;;;;14.80;100.00;64514.06;5033064;28;20683;-57
2023/05/21 03:36:08;;;;;;;11.85;9.23;;;;;;;14.67;100.00;64500.31;5033079;28;20201;-57
2023/05/21 03:38:34;;;;;;;11.13;9.00;;;;;;;14.60;100.00;64495.16;5033209;28;20218;-56
2023/05/21 03:40:59;;;;;;;14.75;9.20;;;;;;;14.84;100.00;64519.00;5032484;28;20221;-59
2023/05/21 03:43:25;;;;;;;22.35;11.20;;;;;;;14.63;100.00;64495.38;5033157;28;20210;-55
2023/05/21 03:45:50;;;;;;;15.55;10.32;;;;;;;14.51;100.00;64482.72;5033133;28;20218;-59
2023/05/21 03:48:16;;;;;;;13.90;9.60;;;;;;;14.53;100.00;64484.94;5033145;28;20225;-57
2023/05/21 03:50:42;;;;;;;14.27;9.73;;;;;;;14.58;100.00;64489.88;5033169;28;20186;-58
2023/05/21 03:53:09;;;;;;;13.50;9.82;;;;;;;14.62;100.00;64497.38;5032917;28;20214;-60
2023/05/21 03:55:35;;;;;;;19.67;10.05;;;;;;;14.59;100.00;64490.97;5032683;28;20737;-56
2023/05/21 03:58:00;;;;;;;29.10;10.77;;;;;;;14.73;100.00;64508.88;5032580;28;20301;-58
2023/05/21 04:00:25;;;;;;;13.60;10.10;;;;;;;14.77;100.00;64510.75;5032861;28;20240;-57
2023/05/21 04:02:51;;;;;;;15.07;8.98;;;;;;;14.70;100.00;64505.59;5032261;28;20273;-59
2023/05/21 04:05:16;;;;;;;14.85;9.65;;;;;;;14.92;100.00;64530.34;5032527;28;20183;-59
2023/05/21 04:07:45;;;;;;;13.32;9.82;;;;;;;14.95;100.00;64531.09;5032656;28;20225;-59
2023/05/21 04:10:11;;;;;;;18.38;10.10;;;;;;;14.91;100.00;64523.59;5032605;28;20580;-59
2023/05/21 04:12:37;;;;;;;13.98;10.18;;;;;;;14.83;100.00;64517.91;5032628;28;20269;-60
2023/05/21 04:15:03;;;;;;;11.45;8.85;;;;;;;14.96;100.00;64531.66;5032361;28;20242;-55
2023/05/21 04:17:28;;;;;;;15.50;9.80;;;;;;;15.03;100.00;64542.44;5032590;28;20213;-57
2023/05/21 04:19:53;;;;;;;13.07;10.00;;;;;;;14.98;100.00;64536.94;5032372;28;20217;-56
2023/05/21 04:22:20;;;;;;;14.55;9.02;;;;;;;14.89;100.00;64527.03;5032438;28;20183;-56
2023/05/21 04:24:45;;;;;;;17.92;9.50;;;;;;;14.79;100.00;64512.94;5032548;28;20716;-59
2023/05/21 04:27:12;;;;;;;17.02;9.63;;;;;;;14.74;100.00;64505.47;5032166;28;20301;-61
2023/05/21 04:29:41;;;;;;;14.32;9.85;;;;;;;14.93;100.00;64526.34;5032278;28;20209;-56
2023/05/21 04:32:07;;;;;;;13.18;9.18;;;;;;;14.95;100.00;64531.09;5032260;28;20246;-59
2023/05/21 04:34:32;;;;;;;16.10;10.00;;;;;;;15.07;100.00;64541.75;5032093;28;20213;-59
2023/05/21 04:36:59;;;;;;;14.93;8.90;;;;;;;15.05;100.00;64539.53;5032106;28;20206;-59
2023/05/21 04:39:24;;;;;;;14.30;8.70;;;;;;;15.00;100.00;64536.59;5032139;28;20731;-58
2023/05/21 04:41:53;;;;;;;19.52;9.15;;;;;;;15.01;100.00;64537.13;5032073;28;20190;-60
2023/05/21 04:44:18;;;;;;;17.27;9.82;;;;;;;14.92;100.00;64530.34;5031790;28;20213;-61
2023/05/21 04:46:44;;;;;;;14.10;9.25;;;;;;;14.95;100.00;64530.53;5032003;28;20194;-57
2023/05/21 04:49:10;;;;;;;13.70;9.52;;;;;;;14.96;100.00;64534.75;5032263;28;20276;-57
2023/05/21 04:51:36;;;;;;;12.88;9.40;;;;;;;15.15;100.00;64555.63;5032162;28;20182;-59
2023/05/21 04:54:02;;;;;;;13.98;9.38;;;;;;;15.15;100.00;64552.53;5032233;28;20224;-59
2023/05/21 04:56:28;;;;;;;14.38;9.48;;;;;;;15.15;100.00;64553.06;5031854;28;20214;-59
2023/05/21 04:58:53;;;;;;;12.82;8.68;;;;;;;15.25;100.00;64563.53;5032077;28;20225;-59
2023/05/21 05:01:22;;;;;;;15.60;9.30;;;;;;;15.50;100.00;64593.03;5031820;28;20190;-57
2023/05/21 05:03:48;;;;;;;15.85;9.98;;;;;;;15.38;100.00;64574.72;5030449;28;20276;-57
2023/05/21 05:06:13;;;;;;;15.95;9.88;;;;;;;15.46;100.00;64586.09;5031788;28;20190;-56
2023/05/21 05:08:39;;;;;;;16.10;10.88;;;;;;;15.23;100.00;64561.31;5031630;28;20206;-59
2023/05/21 05:11:04;;;;;;;16.58;10.45;;;;;;;15.12;100.00;64549.78;5031825;28;20638;-58
2023/05/21 05:13:30;;;;;;;15.60;9.65;;;;;;;15.17;100.00;64556.72;5031155;28;20210;-56
2023/05/21 05:15:56;;;;;;;16.05;9.40;;;;;;;15.11;100.00;64551.22;5031723;28;20255;-60
2023/05/21 05:18:21;;;;;;;17.10;9.40;;;;;;;15.10;100.00;64549.56;5031330;28;20214;-60
2023/05/21 05:20:47;;;;;;;20.02;10.65;;;;;;;15.21;100.00;64561.66;5031387;28;20189;-61
2023/05/21 05:23:13;;;;;;;17.42;9.93;;;;;;;15.61;100.00;64605.69;5030190;28;20221;-59
2023/05/21 05:25:38;;;;;;;12.93;8.98;;;;;;;15.65;100.00;64607.00;5031743;28;20577;-63
2023/05/21 05:28:04;;;;;;;13.10;8.68;;;;;;;15.99;100.00;64644.41;5031347;28;20210;-60
2023/05/21 05:30:29;;;;;;;11.48;7.38;;;;;;;15.91;100.00;64635.59;5031572;28;20182;-61
2023/05/21 05:32:55;;;;;;;10.45;6.65;;;;;;;15.80;100.00;64623.50;5031728;28;20273;-59
2023/05/21 05:35:20;;;;;;;8.15;5.05;;;;;;;15.89;99.78;64635.94;5031335;28;20182;-57
2023/05/21 05:37:46;;;;;;;9.10;4.88;;;;;;;15.90;100.00;64637.03;5031015;28;20310;-56
2023/05/21 05:40:11;;;;;;;12.30;6.53;;;;;;;15.92;100.00;64634.72;5031044;28;20190;-56
2023/05/21 05:42:36;;;;;;;11.90;5.75;;;;;;;15.96;100.00;64641.09;5031188;28;20286;-56
2023/05/21 05:45:02;;;;;;;7.85;5.15;;;;;;;16.22;99.89;64669.19;5030965;28;20217;-56
2023/05/21 05:47:28;;;;;;;8.82;5.43;;;;;;;16.13;100.00;64662.34;5031110;28;20220;-57
2023/05/21 05:49:53;;;;;;;10.18;6.25;;;;;;;16.14;100.00;64660.91;5030862;28;20592;-57
2023/05/21 05:52:19;;;;;;;11.57;6.22;;;;;;;16.00;100.00;64645.50;5031170;28;20604;-57
2023/05/21 05:54:44;;;;;;;9.50;6.13;;;;;;;16.22;100.00;64669.72;5031080;28;20747;-56
2023/05/21 05:57:10;;;;;;;11.38;6.30;;;;;;;16.13;100.00;64662.34;5030974;28;20253;-55
2023/05/21 05:59:35;;;;;;;5.75;5.03;;;;;;;16.35;100.00;64684.03;5030976;28;20352;-56
2023/05/21 06:02:00;;;;;;;8.48;4.88;;;;;;;16.50;94.67;64700.56;5030722;28;20588;-56
2023/05/21 06:04:28;;;;;;;9.75;6.03;;;;;;;16.48;98.75;64698.31;5030737;28;20658;-56
2023/05/21 06:06:56;;;;;;;7.93;5.57;;;;;;;16.57;99.92;64710.81;5030800;28;20216;-60
2023/05/21 06:09:22;;;;;;;9.85;4.97;;;;;;;16.60;98.28;64711.56;5030726;28;20218;-56
2023/05/21 06:11:48;;;;;;;8.23;5.03;;;;;;;16.87;89.32;64740.22;5030567;28;20186;-57
2023/05/21 06:14:13;;;;;;;9.25;5.60;;;;;;;16.80;92.10;64733.06;5030550;28;20731;-56
2023/05/21 06:16:39;;;;;;;10.18;5.80;;;;;;;16.73;92.93;64725.88;5030468;28;20218;-56
2023/05/21 06:19:04;;;;;;;10.48;4.93;;;;;;;16.94;89.73;64745.91;5030648;28;20762;-57
2023/05/21 06:21:30;;;;;;;11.23;5.63;;;;;;;16.97;88.34;64751.22;5030616;28;20202;-57
2023/05/21 06:23:55;;;;;;;10.95;5.55;;;;;;;16.97;88.87;64751.22;5030268;28;20280;-57
2023/05/21 06:26:21;;;;;;;9.10;4.28;;;;;;;17.06;85.58;64764.22;5030431;28;20201;-56
2023/05/21 06:28:48;;;;;;;7.30;5.40;;;;;;;17.06;89.97;64761.13;5030430;28;20226;-57
2023/05/21 06:31:14;;;;;;;9.15;5.05;;;;;;;17.01;90.15;64753.63;5030288;28;20755;-57
2023/05/21 06:33:40;;;;;;;12.05;5.90;;;;;;;17.07;88.35;64759.69;5030351;28;20308;-56
2023/05/21 06:36:06;;;;;;;7.22;5.03;;;;;;;17.30;83.07;64788.13;5030423;28;20579;-56
2023/05/21 06:38:32;;;;;;;9.18;5.20;;;;;;;17.30;83.25;64785.56;5030289;28;20239;-57
2023/05/21 06:40:58;;;;;;;11.90;5.10;;;;;;;17.12;83.81;64768.28;5030400;28;20655;-60
2023/05/21 06:43:23;;;;;;;7.50;4.95;;;;;;;17.24;84.52;64778.41;5029786;28;20268;-60
2023/05/21 06:45:49;;;;;;;6.93;4.50;;;;;;;17.38;84.02;64793.84;5030375;28;20744;-59
2023/05/21 06:48:16;;;;;;;9.10;5.50;;;;;;;17.41;86.69;64800.22;5030293;28;20241;-60
2023/05/21 06:50:42;;;;;;;12.98;4.57;;;;;;;17.44;85.42;64800.44;5045561;28;20193;-57
2023/05/21 06:53:08;;;;;;;7.07;4.60;;;;;;;17.61;81.25;64819.22;5030543;28;20198;-58
2023/05/21 06:55:33;;;;;;;7.45;4.90;;;;;;;17.54;76.90;64814.03;5033196;28;20196;-61
2023/05/21 06:57:59;;;;;;;8.77;4.45;;;;;;;17.47;78.75;64804.28;5050024;28;20213;-60
2023/05/21 07:00:24;;;;;;;7.97;4.55;;;;;;;17.50;80.98;64809.63;5050128;28;20200;-59
2023/05/21 07:02:50;;;;;;;7.32;4.80;;;;;;;17.50;80.28;64807.63;5049972;28;20265;-59
2023/05/21 07:05:16;;;;;;;8.30;4.78;;;;;;;17.43;84.64;64799.88;5050108;28;20197;-59
2023/05/21 07:07:41;;;;;;;8.02;4.63;;;;;;;17.52;80.63;64809.28;5049993;28;20259;-60
2023/05/21 07:10:07;;;;;;;7.03;4.68;;;;;;;17.55;96.20;64812.59;5050050;28;20205;-60
2023/05/21 07:12:33;;;;;;;9.30;4.28;;;;;;;17.65;80.34;64828.72;5050169;28;20225;-57
2023/05/21 07:14:58;;;;;;;45.75;24.13;;;;;;;17.61;83.33;64819.22;5050045;28;20710;-58
2023/05/21 07:17:24;;;;;;;8.88;5.55;;;;;;;17.57;81.49;64814.81;5049722;28;20217;-58
2023/05/21 07:19:49;;;;;;;7.85;4.68;;;;;;;17.79;82.19;64838.50;5049832;28;20205;-57
2023/05/21 07:22:15;;;;;;;10.55;4.50;;;;;;;17.83;83.29;64845.44;5049902;28;20721;-57
2023/05/21 07:24:40;;;;;;;6.57;4.60;;;;;;;17.84;78.76;64842.00;5049675;28;20239;-57
2023/05/21 07:27:06;;;;;;;8.35;4.28;;;;;;;17.88;78.93;64848.41;5048360;28;20221;-59
2023/05/21 07:29:32;;;;;;;9.57;5.00;;;;;;;17.93;77.43;64856.47;5049994;28;20221;-56
2023/05/21 07:31:58;;;;;;;8.43;4.78;;;;;;;17.82;78.97;64841.78;5049989;28;20299;-61
2023/05/21 07:34:23;;;;;;;8.45;5.18;;;;;;;17.76;80.97;64835.72;5049774;28;20243;-62
2023/05/21 07:36:49;;;;;;;10.05;5.05;;;;;;;17.95;79.60;64856.13;5050457;28;20615;-60
2023/05/21 07:39:14;;;;;;;9.98;4.72;;;;;;;18.08;80.77;64873.56;5053122;28;20213;-62
2023/05/21 07:41:40;;;;;;;11.45;5.00;;;;;;;18.27;80.66;64891.97;5053034;28;20186;-60
2023/05/21 07:44:05;;;;;;;11.35;6.30;;;;;;;18.50;80.15;64918.81;5052788;28;20233;-62
2023/05/21 07:46:30;;;;;;;7.38;4.47;;;;;;;18.74;77.80;64945.28;5052886;28;20185;-60
2023/05/21 07:48:56;;;;;;;6.82;5.00;;;;;;;18.87;79.01;64957.06;5052635;28;20209;-62
2023/05/21 07:51:21;;;;;;;6.07;4.15;;;;;;;18.98;76.09;64969.75;5052642;28;20733;-60
2023/05/21 07:53:47;;;;;;;8.50;4.60;;;;;;;19.15;75.48;64988.53;5052834;28;20214;-61
2023/05/21 07:56:13;;;;;;;8.13;4.65;;;;;;;19.17;73.00;64990.72;5052728;28;20192;-59
2023/05/21 07:58:39;;;;;;;8.15;4.35;;;;;;;19.34;69.64;65010.97;5052693;28;20698;-61
2023/05/21 08:01:05;;;;;;;8.65;4.38;;;;;;;19.29;67.37;65003.41;5052740;28;20189;-62
2023/05/21 08:03:30;;;;;;;5.78;3.67;;;;;;;19.14;62.45;64986.88;5052793;28;20668;-61
2023/05/21 08:05:56;;;;;;;4.55;3.90;;;;;;;19.32;64.07;65006.72;5052710;28;20757;-61
2023/05/21 08:08:22;;;;;;;6.75;3.72;;;;;;;19.40;62.24;65015.03;5052760;28;20220;-61
2023/05/21 08:10:48;;;;;;;6.85;3.88;;;;;;;19.46;61.66;65021.66;5052457;28;20192;-59
2023/05/21 08:13:15;;;;;;;7.32;4.00;;;;;;;19.69;58.37;65047.63;5052669;28;20217;-60
2023/05/21 08:15:40;;;;;;;9.50;5.18;;;;;;;19.80;60.05;65061.75;5052428;28;20185;-63
2023/05/21 08:18:06;;;;;;;81.45;34.72;;;;;;;19.91;59.92;65071.91;5052271;28;20227;-61
2023/05/21 08:20:32;;;;;;;18.52;7.75;;;;;;;20.09;60.23;65091.78;5052334;28;20656;-62
2023/05/21 08:23:01;;;;;;;16.42;5.97;;;;;;;20.16;62.14;65098.41;5052435;28;20208;-57
2023/05/21 08:25:27;;;;;;;10.18;4.80;;;;;;;20.41;57.78;65126.59;5052147;28;20320;-57
2023/05/21 08:27:53;;;;;;;6.05;3.90;;;;;;;20.22;58.46;65105.59;5052250;28;20224;-61
2023/05/21 08:30:19;;;;;;;7.78;4.35;;;;;;;20.21;55.05;65103.97;5050773;28;20186;-61
2023/05/21 08:32:44;;;;;;;10.10;4.05;;;;;;;20.02;57.32;65084.06;5052044;28;20234;-56
2023/05/21 08:35:10;;;;;;;10.65;4.53;;;;;;;19.85;55.51;65067.84;5050673;28;20189;-56
2023/05/21 08:37:35;;;;;;;14.13;6.93;;;;;;;19.78;55.45;65060.09;5051869;28;20239;-57
2023/05/21 08:40:01;;;;;;;6.25;4.45;;;;;;;19.80;56.41;65059.75;5051894;28;20213;-56
2023/05/21 08:42:46;;;;;;;5.82;3.92;;;;;;;19.86;56.41;65066.38;5052096;28;20644;-56
2023/05/21 08:45:13;;;;;;;10.02;4.40;;;;;;;20.00;57.12;65084.41;5052126;28;20192;-60
2023/05/21 08:47:42;;;;;;;14.13;6.38;;;;;;;20.00;59.87;65083.84;5051848;28;20209;-61
2023/05/21 08:50:13;;;;;;;9.25;6.15;;;;;;;20.27;55.48;65113.16;5051675;28;20196;-63
2023/05/21 08:52:40;;;;;;;7.70;4.35;;;;;;;20.44;56.78;65132.47;5051807;28;20196;-60
2023/05/21 08:55:07;;;;;;;4.20;3.40;;;;;;;20.63;53.41;65152.94;5051828;28;20212;-63
2023/05/21 08:57:33;;;;;;;8.30;4.68;;;;;;;20.87;56.61;65176.88;5051757;28;20252;-60
2023/05/21 09:00:00;;;;;;;8.82;3.58;;;;;;;20.75;54.47;65163.63;5051824;28;20232;-58
2023/05/21 09:02:26;;;;;;;8.20;3.45;;;;;;;20.66;54.37;65156.25;5051614;28;20189;-60
2023/05/21 09:04:56;;;;;;;5.80;3.58;;;;;;;20.46;55.44;65131.59;5051459;28;20220;-58
2023/05/21 09:07:23;;;;;;;7.22;3.17;;;;;;;20.23;56.30;65108.72;5051612;28;20197;-57
2023/05/21 09:09:56;;;;;;;9.18;4.00;;;;;;;20.36;56.66;65121.06;5050439;28;20205;-57
2023/05/21 09:12:24;;;;;;;6.03;3.80;;;;;;;20.59;58.72;65146.50;5051816;28;20190;-57
2023/05/21 09:14:51;;;;;;;6.88;3.90;;;;;;;20.80;55.80;65166.59;5051567;28;20703;-59
2023/05/21 09:17:18;;;;;;;6.90;3.45;;;;;;;20.83;54.16;65175.03;5051544;28;20213;-58
2023/05/21 09:20:10;;;;;;;6.75;3.65;;;;;;;21.20;54.25;65212.84;5051434;28;20205;-59
2023/05/21 09:22:40;;;;;;;8.02;3.53;;;;;;;21.29;48.43;65223.34;5051531;28;20343;-59
2023/05/21 09:25:09;;;;;;;4.32;3.15;;;;;;;21.26;48.06;65220.03;5051307;28;20262;-58
2023/05/21 09:27:35;;;;;;;8.70;3.70;;;;;;;21.20;50.09;65215.97;5051589;28;20202;-58
2023/05/21 09:30:02;;;;;;;7.30;3.63;;;;;;;21.20;53.36;65212.84;5051563;28;20308;-60
2023/05/21 09:32:28;;;;;;;6.05;3.17;;;;;;;20.95;47.71;65185.72;5051585;28;20201;-61
2023/05/21 09:34:53;;;;;;;5.32;3.03;;;;;;;21.23;47.88;65213.63;5051084;28;20216;-60
2023/05/21 09:37:21;;;;;;;4.85;3.40;;;;;;;21.10;47.02;65201.78;5051101;28;20202;-61
2023/05/21 09:39:47;;;;;;;8.23;3.08;;;;;;;21.41;45.67;65236.63;5051545;28;20202;-60
2023/05/21 09:42:13;;;;;;;5.75;2.63;;;;;;;21.26;43.15;65219.47;5066517;28;20238;-60
2023/05/21 09:44:42;;;;;;;6.15;3.10;;;;;;;21.22;44.71;65215.63;5051281;28;20213;-59
2023/05/21 09:47:08;;;;;;;9.10;3.13;;;;;;;21.24;44.25;65220.41;5051192;28;20193;-58
2023/05/21 09:49:36;;;;;;;7.22;3.00;;;;;;;21.30;46.37;65224.47;5051161;28;20301;-62
2023/05/21 09:52:01;;;;;;;4.18;2.97;;;;;;;21.71;47.23;65269.25;5051092;28;20181;-62
2023/05/21 09:54:32;;;;;;;5.07;2.90;;;;;;;22.29;49.67;65333.47;5051119;28;20266;-62
2023/05/21 09:57:00;;;;;;;5.65;3.17;;;;;;;22.58;49.92;65362.47;5050923;28;20217;-62
2023/05/21 09:59:37;;;;;;;5.93;2.88;;;;;;;22.64;45.09;65371.69;5050279;28;20226;-61
2023/05/21 10:02:13;;;;;;;5.55;3.80;;;;;;;22.65;45.08;65375.34;5051053;28;20193;-58
2023/05/21 10:04:38;;;;;;;5.85;3.10;;;;;;;22.62;42.51;65369.47;5050834;28;20262;-60
2023/05/21 10:07:04;;;;;;;4.65;3.10;;;;;;;22.63;40.69;65370.00;5050951;28;20220;-59
2023/05/21 10:09:30;;;;;;;11.93;3.55;;;;;;;22.55;41.15;65359.13;5050596;28;20292;-60
2023/05/21 10:11:57;;;;;;;7.90;3.05;;;;;;;22.49;42.32;65355.59;5050858;28;20254;-61
2023/05/21 10:14:26;;;;;;;3.53;2.83;;;;;;;22.76;44.06;65384.97;5050970;28;20251;-57
2023/05/21 10:16:53;;;;;;;7.35;3.45;;;;;;;22.57;46.30;65361.34;5050673;28;20224;-57
2023/05/21 10:19:19;;;;;;;5.45;3.80;;;;;;;21.88;45.59;65284.97;5050815;28;20224;-58
2023/05/21 10:21:45;;;;;;;6.15;3.70;;;;;;;21.94;46.15;65291.63;5050548;28;20189;-58
2023/05/21 10:24:11;;;;;;;6.07;3.22;;;;;;;21.68;44.26;65266.50;5050440;28;20213;-57
2023/05/21 10:26:40;;;;;;;4.97;3.22;;;;;;;21.62;44.31;65259.31;5050459;28;20617;-57
2023/05/21 10:29:06;;;;;;;6.57;3.83;;;;;;;21.36;42.40;65231.09;5050755;28;20206;-58
2023/05/21 10:31:33;;;;;;;6.57;3.47;;;;;;;21.19;44.26;65209.19;5050736;28;20667;-55
2023/05/21 10:34:00;;;;;;;6.22;3.33;;;;;;;21.15;46.43;65210.44;5050689;28;20210;-58
2023/05/21 10:36:36;;;;;;;4.50;3.40;;;;;;;21.05;46.59;65193.72;5050507;28;20220;-58
2023/05/21 10:39:02;;;;;;;5.55;3.20;;;;;;;21.57;46.41;65253.78;5050475;28;20746;-56
2023/05/21 10:41:34;;;;;;;5.22;3.22;;;;;;;22.02;45.04;65303.03;5050284;28;20272;-56
2023/05/21 10:44:12;;;;;;;4.75;3.08;;;;;;;22.33;45.84;65335.31;5050197;28;20866;-57
2023/05/21 10:47:03;;;;;;;7.05;3.10;;;;;;;21.92;41.88;65291.97;5048918;28;20560;-61
2023/05/21 10:49:50;;;;;;;8.38;3.70;;;;;;;21.35;45.55;65229.97;5050735;28;20280;-60
2023/05/21 10:52:42;;;;;;;5.68;3.10;;;;;;;21.31;46.26;65223.00;5050216;28;20597;-61
2023/05/21 10:55:42;;;;;;;5.55;3.17;;;;;;;21.16;48.08;65208.44;5050432;28;20193;-61
2023/05/21 10:58:37;;;;;;;8.77;3.40;;;;;;;20.93;48.08;65183.53;5050167;28;20221;-60
2023/05/21 11:01:04;;;;;;;6.35;3.65;;;;;;;20.52;47.93;65138.22;5050144;28;20189;-60
2023/05/21 11:03:31;;;;;;;12.23;3.58;;;;;;;20.52;47.98;65138.22;5048408;28;20292;-60
2023/05/21 11:05:56;;;;;;;5.35;3.22;;;;;;;20.42;49.51;65127.72;5049982;28;20297;-60
2023/05/21 11:08:24;;;;;;;5.28;3.40;;;;;;;20.30;49.38;65111.34;5050023;28;20296;-60
2023/05/21 11:10:54;;;;;;;5.53;3.13;;;;;;;20.42;47.34;65127.16;5050033;28;20177;-61
2023/05/21 11:13:20;;;;;;;6.38;3.63;;;;;;;20.51;59.91;65137.66;5053401;28;20240;-63
2023/05/21 11:15:58;;;;;;;4.88;3.70;;;;;;;20.95;59.73;65185.19;5053336;28;20181;-64
2023/05/21 11:18:29;;;;;;;5.30;3.25;;;;;;;21.23;52.18;65216.72;5053243;28;20255;-61
2023/05/21 11:21:03;;;;;;;19.60;3.78;;;;;;;21.37;51.50;65232.19;5053252;28;20677;-63
2023/05/21 11:23:57;;;;;;;8.63;3.38;;;;;;;21.50;48.77;65243.47;5053368;28;20205;-63